createdAt,value
2018-09-06T00:00:47.779Z,996.80
2018-09-06T00:01:47.786Z,996.86
2018-09-06T00:02:47.755Z,996.83
2018-09-06T00:03:47.744Z,996.85
2018-09-06T00:04:47.762Z,996.83
2018-09-06T00:05:47.720Z,996.82
2018-09-06T00:06:47.733Z,996.82
2018-09-06T00:07:47.699Z,996.80
2018-09-06T00:08:47.692Z,996.82
2018-09-06T00:09:47.683Z,996.82
2018-09-06T00:10:47.668Z,996.82
2018-09-06T00:11:47.681Z,996.80
2018-09-06T00:12:47.644Z,996.80
2018-09-06T00:13:47.652Z,996.78
2018-09-06T00:14:47.622Z,996.79
2018-09-06T00:15:47.614Z,996.77
2018-09-06T00:16:47.602Z,996.81
2018-09-06T00:17:47.610Z,996.79
2018-09-06T00:18:47.576Z,996.81
2018-09-06T00:19:47.567Z,996.78
2018-09-06T00:20:47.554Z,996.78
2018-09-06T00:21:47.544Z,996.81
2018-09-06T00:22:47.555Z,996.79
2018-09-06T00:23:47.523Z,996.79
2018-09-06T00:24:47.511Z,996.80
2018-09-06T00:25:47.500Z,996.77
2018-09-06T00:26:47.492Z,996.79
2018-09-06T00:27:47.502Z,996.80
2018-09-06T00:28:47.466Z,996.81
2018-09-06T00:29:47.457Z,996.78
2018-09-06T00:30:47.448Z,996.82
2018-09-06T00:31:47.431Z,996.82
2018-09-06T00:32:47.448Z,996.81
2018-09-06T00:33:47.412Z,996.75
2018-09-06T00:34:47.399Z,996.79
2018-09-06T00:35:47.387Z,996.80
2018-09-06T00:36:47.380Z,996.75
2018-09-06T00:37:47.386Z,996.79
2018-09-06T00:38:47.356Z,996.77
2018-09-06T00:39:47.345Z,996.73
2018-09-06T00:40:47.339Z,996.75
2018-09-06T00:41:47.324Z,996.75
2018-09-06T00:42:47.334Z,996.76
2018-09-06T00:43:47.299Z,996.78
2018-09-06T00:44:47.292Z,996.74
2018-09-06T00:45:47.278Z,996.77
2018-09-06T00:46:47.267Z,996.79
2018-09-06T00:47:47.279Z,996.77
2018-09-06T00:48:47.243Z,996.78
2018-09-06T00:49:47.236Z,996.72
2018-09-06T00:50:47.224Z,996.82
2018-09-06T00:51:47.255Z,996.84
2018-09-06T00:52:47.219Z,996.80
2018-09-06T00:53:47.194Z,996.80
2018-09-06T00:54:47.177Z,996.81
2018-09-06T00:55:47.167Z,996.81
2018-09-06T00:56:47.153Z,996.83
2018-09-06T00:57:47.170Z,996.83
2018-09-06T00:58:47.135Z,996.82
2018-09-06T00:59:47.128Z,996.86
2018-09-06T01:00:47.109Z,996.84
2018-09-06T01:01:47.101Z,996.84
2018-09-06T01:02:47.108Z,996.84
2018-09-06T01:03:47.082Z,996.84
2018-09-06T01:04:47.071Z,996.84
2018-09-06T01:05:47.055Z,996.87
2018-09-06T01:06:47.043Z,996.86
2018-09-06T01:07:47.056Z,996.88
2018-09-06T01:08:47.021Z,996.84
2018-09-06T01:09:47.011Z,996.87
2018-09-06T01:10:47.002Z,996.84
2018-09-06T01:11:46.988Z,996.81
2018-09-06T01:12:46.996Z,996.81
2018-09-06T01:13:46.965Z,996.82
2018-09-06T01:14:46.960Z,996.82
2018-09-06T01:15:46.944Z,996.74
2018-09-06T01:16:46.937Z,996.74
2018-09-06T01:17:46.949Z,996.74
2018-09-06T01:18:46.912Z,996.74
2018-09-06T01:19:46.907Z,996.73
2018-09-06T01:20:46.888Z,996.75
2018-09-06T01:21:46.882Z,996.76
2018-09-06T01:22:46.885Z,996.73
2018-09-06T01:23:46.858Z,996.71
2018-09-06T01:24:46.847Z,996.70
2018-09-06T01:25:46.838Z,996.75
2018-09-06T01:26:46.822Z,996.66
2018-09-06T01:27:46.843Z,996.69
2018-09-06T01:28:46.803Z,996.65
2018-09-06T01:29:46.787Z,996.64
2018-09-06T01:30:46.777Z,996.62
2018-09-06T01:31:46.768Z,996.60
2018-09-06T01:32:46.781Z,996.63
2018-09-06T01:33:46.744Z,996.61
2018-09-06T01:34:46.737Z,996.56
2018-09-06T01:35:46.720Z,996.57
2018-09-06T01:36:46.714Z,996.57
2018-09-06T01:37:46.721Z,996.59
2018-09-06T01:38:46.689Z,996.58
2018-09-06T01:39:46.680Z,996.60
2018-09-06T01:40:46.677Z,996.56
2018-09-06T01:41:46.654Z,996.52
2018-09-06T01:42:46.664Z,996.54
2018-09-06T01:43:46.631Z,996.55
2018-09-06T01:44:46.645Z,996.57
2018-09-06T01:45:46.611Z,996.56
2018-09-06T01:46:46.601Z,996.57
2018-09-06T01:47:46.593Z,996.58
2018-09-06T01:48:46.597Z,996.57
2018-09-06T01:49:46.566Z,996.58
2018-09-06T01:50:46.556Z,996.53
2018-09-06T01:51:46.544Z,996.54
2018-09-06T01:52:46.532Z,996.47
2018-09-06T01:53:46.546Z,996.46
2018-09-06T01:54:46.512Z,996.46
2018-09-06T01:55:46.504Z,996.40
2018-09-06T01:56:46.493Z,996.44
2018-09-06T01:57:46.477Z,996.46
2018-09-06T01:58:46.486Z,996.49
2018-09-06T01:59:46.462Z,996.48
2018-09-06T02:00:46.450Z,996.49
2018-09-06T02:01:46.443Z,996.42
2018-09-06T02:02:46.425Z,996.41
2018-09-06T02:03:46.433Z,996.42
2018-09-06T02:04:46.400Z,996.40
2018-09-06T02:05:46.388Z,996.40
2018-09-06T02:06:46.378Z,996.41
2018-09-06T02:07:46.366Z,996.38
2018-09-06T02:08:46.377Z,996.38
2018-09-06T02:09:46.344Z,996.37
2018-09-06T02:10:46.333Z,996.37
2018-09-06T02:11:46.324Z,996.33
2018-09-06T02:12:46.312Z,996.39
2018-09-06T02:13:46.321Z,996.37
2018-09-06T02:14:46.291Z,996.35
2018-09-06T02:15:46.278Z,996.32
2018-09-06T02:16:46.270Z,996.32
2018-09-06T02:17:46.255Z,996.32
2018-09-06T02:18:46.273Z,996.29
2018-09-06T02:19:46.231Z,996.31
2018-09-06T02:20:46.225Z,996.32
2018-09-06T02:21:46.210Z,996.35
2018-09-06T02:22:46.200Z,996.29
2018-09-06T02:23:46.211Z,996.30
2018-09-06T02:24:46.179Z,996.28
2018-09-06T02:25:46.168Z,996.23
2018-09-06T02:26:46.156Z,996.23
2018-09-06T02:27:46.145Z,996.28
2018-09-06T02:28:46.157Z,996.25
2018-09-06T02:29:46.128Z,996.24
2018-09-06T02:30:46.115Z,996.20
2018-09-06T02:31:46.108Z,996.19
2018-09-06T02:32:46.091Z,996.18
2018-09-06T02:33:46.102Z,996.17
2018-09-06T02:34:46.074Z,996.14
2018-09-06T02:35:46.054Z,996.21
2018-09-06T02:36:46.045Z,996.16
2018-09-06T02:37:46.032Z,996.18
2018-09-06T02:38:46.048Z,996.22
2018-09-06T02:39:46.011Z,996.22
2018-09-06T02:40:45.998Z,996.24
2018-09-06T02:41:45.988Z,996.26
2018-09-06T02:42:45.976Z,996.25
2018-09-06T02:43:45.989Z,996.25
2018-09-06T02:44:45.961Z,996.26
2018-09-06T02:45:45.946Z,996.31
2018-09-06T02:46:45.939Z,996.34
2018-09-06T02:47:45.930Z,996.36
2018-09-06T02:48:45.930Z,996.38
2018-09-06T02:49:45.899Z,996.46
2018-09-06T02:50:45.894Z,996.52
2018-09-06T02:51:45.882Z,996.60
2018-09-06T02:52:45.867Z,996.61
2018-09-06T02:53:45.950Z,996.67
2018-09-06T02:54:45.846Z,996.70
2018-09-06T02:55:45.833Z,996.68
2018-09-06T02:56:45.822Z,996.66
2018-09-06T02:57:45.818Z,996.65
2018-09-06T02:58:45.821Z,996.69
2018-09-06T02:59:45.794Z,996.65
2018-09-06T03:00:45.776Z,996.65
2018-09-06T03:01:45.769Z,996.64
2018-09-06T03:02:45.753Z,996.62
2018-09-06T03:03:45.764Z,996.65
2018-09-06T03:04:45.741Z,996.67
2018-09-06T03:05:45.721Z,996.66
2018-09-06T03:06:45.711Z,996.66
2018-09-06T03:07:45.701Z,996.64
2018-09-06T03:08:45.709Z,996.63
2018-09-06T03:09:45.684Z,996.60
2018-09-06T03:10:45.666Z,996.60
2018-09-06T03:11:45.664Z,996.57
2018-09-06T03:12:45.645Z,996.52
2018-09-06T03:13:45.655Z,996.52
2018-09-06T03:14:45.621Z,996.54
2018-09-06T03:15:45.612Z,996.54
2018-09-06T03:16:45.601Z,996.55
2018-09-06T03:17:45.589Z,996.57
2018-09-06T03:18:45.596Z,996.58
2018-09-06T03:19:45.572Z,996.60
2018-09-06T03:20:45.554Z,996.60
2018-09-06T03:21:45.550Z,996.62
2018-09-06T03:22:45.534Z,996.60
2018-09-06T03:23:45.549Z,996.59
2018-09-06T03:24:45.517Z,996.58
2018-09-06T03:25:45.499Z,996.54
2018-09-06T03:26:45.494Z,996.53
2018-09-06T03:27:45.480Z,996.51
2018-09-06T03:28:45.492Z,996.49
2018-09-06T03:29:45.456Z,996.45
2018-09-06T03:30:45.450Z,996.44
2018-09-06T03:31:45.455Z,996.44
2018-09-06T03:32:45.423Z,996.44
2018-09-06T03:33:45.409Z,996.44
2018-09-06T03:34:45.420Z,996.38
2018-09-06T03:35:45.397Z,996.41
2018-09-06T03:36:45.383Z,996.33
2018-09-06T03:37:45.371Z,996.37
2018-09-06T03:38:45.356Z,996.31
2018-09-06T03:39:45.375Z,996.29
2018-09-06T03:40:45.334Z,996.31
2018-09-06T03:41:45.322Z,996.30
2018-09-06T03:42:45.312Z,996.25
2018-09-06T03:43:45.299Z,996.22
2018-09-06T03:44:45.312Z,996.23
2018-09-06T03:45:45.283Z,996.19
2018-09-06T03:46:45.269Z,996.18
2018-09-06T03:47:45.255Z,996.22
2018-09-06T03:48:45.248Z,996.20
2018-09-06T03:49:45.256Z,996.19
2018-09-06T03:50:45.223Z,996.20
2018-09-06T03:51:45.223Z,996.16
2018-09-06T03:52:45.201Z,996.14
2018-09-06T03:53:45.188Z,996.12
2018-09-06T03:54:45.200Z,996.06
2018-09-06T03:55:45.169Z,996.01
2018-09-06T03:56:45.156Z,995.98
2018-09-06T03:57:45.150Z,995.95
2018-09-06T03:58:45.138Z,995.99
2018-09-06T03:59:45.143Z,995.97
2018-09-06T04:00:45.110Z,995.95
2018-09-06T04:01:45.104Z,995.98
2018-09-06T04:02:45.090Z,995.93
2018-09-06T04:03:45.079Z,995.94
2018-09-06T04:04:45.093Z,995.91
2018-09-06T04:05:45.057Z,995.96
2018-09-06T04:06:45.046Z,995.99
2018-09-06T04:07:45.037Z,995.98
2018-09-06T04:08:45.028Z,995.95
2018-09-06T04:09:45.034Z,995.98
2018-09-06T04:10:45.003Z,996.04
2018-09-06T04:11:44.991Z,996.01
2018-09-06T04:12:44.978Z,996.02
2018-09-06T04:13:44.967Z,996.04
2018-09-06T04:14:44.981Z,996.08
2018-09-06T04:15:44.943Z,996.08
2018-09-06T04:16:44.933Z,996.09
2018-09-06T04:17:44.922Z,996.11
2018-09-06T04:18:44.919Z,996.07
2018-09-06T04:19:44.922Z,996.10
2018-09-06T04:20:44.893Z,996.09
2018-09-06T04:21:44.879Z,996.06
2018-09-06T04:22:44.869Z,996.04
2018-09-06T04:23:44.855Z,996.03
2018-09-06T04:24:44.869Z,996.02
2018-09-06T04:25:44.834Z,996.00
2018-09-06T04:26:44.823Z,995.99
2018-09-06T04:27:44.810Z,996.02
2018-09-06T04:28:44.814Z,996.00
2018-09-06T04:29:44.813Z,996.00
2018-09-06T04:30:44.781Z,996.02
2018-09-06T04:31:44.768Z,995.98
2018-09-06T04:32:44.764Z,995.93
2018-09-06T04:33:44.748Z,995.94
2018-09-06T04:34:44.764Z,995.89
2018-09-06T04:35:44.721Z,995.90
2018-09-06T04:36:44.715Z,995.87
2018-09-06T04:37:44.703Z,995.83
2018-09-06T04:38:44.690Z,995.80
2018-09-06T04:39:44.701Z,995.79
2018-09-06T04:40:44.673Z,995.79
2018-09-06T04:41:44.659Z,995.77
2018-09-06T04:42:44.646Z,995.75
2018-09-06T04:43:44.704Z,995.77
2018-09-06T04:44:44.651Z,995.74
2018-09-06T04:45:44.614Z,995.70
2018-09-06T04:46:44.601Z,995.69
2018-09-06T04:47:44.589Z,995.70
2018-09-06T04:48:44.582Z,995.70
2018-09-06T04:49:44.587Z,995.67
2018-09-06T04:50:44.559Z,995.69
2018-09-06T04:51:44.545Z,995.70
2018-09-06T04:52:44.540Z,995.70
2018-09-06T04:53:44.524Z,995.74
2018-09-06T04:54:44.532Z,995.75
2018-09-06T04:55:44.502Z,995.74
2018-09-06T04:56:44.492Z,995.75
2018-09-06T04:57:44.481Z,995.73
2018-09-06T04:58:44.473Z,995.71
2018-09-06T04:59:44.484Z,995.74
2018-09-06T05:00:44.452Z,995.78
2018-09-06T05:01:44.436Z,995.81
2018-09-06T05:02:44.429Z,995.78
2018-09-06T05:03:44.420Z,995.86
2018-09-06T05:04:44.422Z,995.85
2018-09-06T05:05:44.388Z,995.87
2018-09-06T05:06:44.380Z,995.86
2018-09-06T05:07:44.368Z,995.89
2018-09-06T05:08:44.365Z,995.90
2018-09-06T05:09:44.368Z,995.91
2018-09-06T05:10:44.334Z,995.86
2018-09-06T05:11:44.323Z,995.85
2018-09-06T05:12:44.310Z,995.86
2018-09-06T05:13:44.301Z,995.83
2018-09-06T05:14:44.288Z,995.83
2018-09-06T05:15:44.298Z,995.85
2018-09-06T05:16:44.269Z,995.79
2018-09-06T05:17:44.260Z,995.80
2018-09-06T05:18:44.245Z,995.71
2018-09-06T05:19:44.234Z,995.72
2018-09-06T05:20:44.242Z,995.66
2018-09-06T05:21:44.212Z,995.70
2018-09-06T05:22:44.200Z,995.63
2018-09-06T05:23:44.189Z,995.63
2018-09-06T05:24:44.177Z,995.64
2018-09-06T05:25:44.190Z,995.60
2018-09-06T05:26:44.157Z,995.57
2018-09-06T05:27:44.144Z,995.56
2018-09-06T05:28:44.132Z,995.51
2018-09-06T05:29:44.121Z,995.52
2018-09-06T05:30:44.146Z,995.51
2018-09-06T05:31:44.100Z,995.46
2018-09-06T05:32:44.090Z,995.43
2018-09-06T05:33:44.079Z,995.40
2018-09-06T05:34:44.068Z,995.43
2018-09-06T05:35:44.074Z,995.42
2018-09-06T05:36:44.043Z,995.44
2018-09-06T05:37:44.032Z,995.42
2018-09-06T05:38:44.022Z,995.48
2018-09-06T05:39:44.011Z,995.48
2018-09-06T05:40:44.020Z,995.52
2018-09-06T05:41:43.989Z,995.49
2018-09-06T05:42:43.977Z,995.54
2018-09-06T05:43:43.966Z,995.58
2018-09-06T05:44:43.957Z,995.60
2018-09-06T05:45:43.982Z,995.65
2018-09-06T05:46:43.933Z,995.63
2018-09-06T05:47:43.952Z,995.66
2018-09-06T05:48:43.911Z,995.68
2018-09-06T05:49:43.899Z,995.73
2018-09-06T05:50:43.936Z,995.75
2018-09-06T05:51:43.876Z,995.76
2018-09-06T05:52:43.870Z,995.76
2018-09-06T05:53:43.853Z,995.78
2018-09-06T05:54:43.864Z,995.73
2018-09-06T05:55:43.863Z,995.71
2018-09-06T05:56:43.821Z,995.69
2018-09-06T05:57:43.815Z,995.70
2018-09-06T05:58:43.800Z,995.71
2018-09-06T05:59:43.870Z,995.73
2018-09-06T06:00:43.796Z,995.69
2018-09-06T06:01:43.794Z,995.69
2018-09-06T06:02:43.756Z,995.73
2018-09-06T06:03:43.742Z,995.72
2018-09-06T06:04:43.731Z,995.76
2018-09-06T06:05:43.742Z,995.76
2018-09-06T06:06:43.709Z,995.76
2018-09-06T06:07:43.698Z,995.81
2018-09-06T06:08:43.690Z,995.80
2018-09-06T06:12:58.803Z,995.80
2018-09-06T06:13:37.772Z,995.83
2018-09-06T06:14:37.761Z,995.78
2018-09-06T06:15:37.769Z,995.82
2018-09-06T06:16:37.740Z,995.84
2018-09-06T06:17:37.728Z,995.84
2018-09-06T06:18:37.716Z,995.87
2018-09-06T06:19:37.722Z,995.89
2018-09-06T06:20:37.717Z,995.92
2018-09-06T06:21:37.685Z,995.90
2018-09-06T06:22:37.677Z,995.88
2018-09-06T06:23:37.660Z,995.90
2018-09-06T06:24:37.651Z,995.86
2018-09-06T06:25:37.674Z,995.86
2018-09-06T06:26:37.629Z,995.82
2018-09-06T06:27:37.617Z,995.84
2018-09-06T06:28:37.606Z,995.87
2018-09-06T06:29:37.601Z,995.86
2018-09-06T06:30:37.610Z,995.86
2018-09-06T06:31:37.573Z,995.88
2018-09-06T06:32:37.570Z,995.88
2018-09-06T06:33:37.549Z,995.90
2018-09-06T06:34:37.544Z,995.87
2018-09-06T06:35:37.549Z,995.92
2018-09-06T06:36:37.531Z,995.87
2018-09-06T06:37:37.515Z,995.88
2018-09-06T06:38:37.492Z,995.85
2018-09-06T06:39:37.481Z,995.85
2018-09-06T06:40:37.493Z,995.91
2018-09-06T06:41:37.466Z,995.88
2018-09-06T06:42:37.454Z,995.86
2018-09-06T06:43:37.445Z,995.86
2018-09-06T06:44:37.432Z,995.81
2018-09-06T06:45:37.414Z,995.83
2018-09-06T06:46:37.423Z,995.79
2018-09-06T06:47:37.392Z,995.80
2018-09-06T06:48:37.393Z,995.79
2018-09-06T06:49:37.370Z,995.76
2018-09-06T06:50:37.361Z,995.77
2018-09-06T06:51:37.367Z,995.74
2018-09-06T06:52:37.337Z,995.71
2018-09-06T06:53:37.352Z,995.72
2018-09-06T06:54:37.313Z,995.75
2018-09-06T06:55:37.302Z,995.76
2018-09-06T06:56:37.312Z,995.69
2018-09-06T06:57:37.285Z,995.71
2018-09-06T06:58:37.391Z,995.71
2018-09-06T06:59:37.258Z,995.72
2018-09-06T07:00:37.246Z,995.65
2018-09-06T07:01:37.255Z,995.71
2018-09-06T07:02:37.223Z,995.69
2018-09-06T07:03:37.215Z,995.69
2018-09-06T07:04:37.276Z,995.71
2018-09-06T07:05:37.189Z,995.69
2018-09-06T07:06:37.198Z,995.72
2018-09-06T07:07:37.171Z,995.72
2018-09-06T07:08:37.156Z,995.74
2018-09-06T07:09:37.149Z,995.78
2018-09-06T07:10:37.134Z,995.79
2018-09-06T07:11:37.146Z,995.77
2018-09-06T07:12:37.111Z,995.76
2018-09-06T07:13:37.099Z,995.84
2018-09-06T07:14:37.089Z,995.78
2018-09-06T07:15:37.078Z,995.81
2018-09-06T07:16:37.087Z,995.83
2018-09-06T07:17:37.057Z,995.85
2018-09-06T07:18:37.094Z,995.81
2018-09-06T07:19:37.067Z,995.81
2018-09-06T07:20:37.022Z,995.78
2018-09-06T07:21:37.032Z,995.77
2018-09-06T07:22:37.000Z,995.77
2018-09-06T07:23:36.990Z,995.79
2018-09-06T07:24:36.978Z,995.80
2018-09-06T07:25:36.967Z,995.76
2018-09-06T07:26:36.976Z,995.77
2018-09-06T07:27:36.945Z,995.78
2018-09-06T07:28:36.933Z,995.76
2018-09-06T07:29:36.926Z,995.74
2018-09-06T07:30:36.954Z,995.78
2018-09-06T07:31:36.920Z,995.78
2018-09-06T07:32:36.889Z,995.78
2018-09-06T07:33:36.877Z,995.79
2018-09-06T07:34:36.870Z,995.78
2018-09-06T07:35:36.856Z,995.76
2018-09-06T07:36:36.865Z,995.76
2018-09-06T07:37:36.835Z,995.78
2018-09-06T07:38:36.869Z,995.76
2018-09-06T07:39:36.812Z,995.74
2018-09-06T07:40:36.803Z,995.78
2018-09-06T07:41:36.811Z,995.76
2018-09-06T07:42:36.779Z,995.79
2018-09-06T07:43:36.766Z,995.78
2018-09-06T07:44:36.774Z,995.77
2018-09-06T07:45:36.745Z,995.79
2018-09-06T07:46:36.754Z,995.80
2018-09-06T07:47:36.724Z,995.76
2018-09-06T07:48:36.729Z,995.81
2018-09-06T07:49:36.702Z,995.77
2018-09-06T07:50:36.691Z,995.70
2018-09-06T07:51:36.766Z,995.71
2018-09-06T07:52:36.666Z,995.75
2018-09-06T07:53:36.658Z,995.79
2018-09-06T07:54:36.659Z,995.82
2018-09-06T07:55:36.633Z,995.75
2018-09-06T07:56:36.645Z,995.73
2018-09-06T07:57:36.612Z,995.76
2018-09-06T07:58:36.643Z,995.76
2018-09-06T07:59:36.598Z,995.74
2018-09-06T08:00:36.578Z,995.77
2018-09-06T08:01:36.661Z,995.70
2018-09-06T08:02:36.556Z,995.72
2018-09-06T08:03:36.556Z,995.75
2018-09-06T08:04:36.533Z,995.77
2018-09-06T08:05:36.523Z,995.78
2018-09-06T08:06:36.537Z,995.79
2018-09-06T08:07:36.501Z,995.82
2018-09-06T08:08:36.495Z,995.87
2018-09-06T08:09:36.477Z,995.88
2018-09-06T08:10:36.467Z,995.88
2018-09-06T08:11:36.478Z,995.87
2018-09-06T08:12:36.445Z,995.91
2018-09-06T08:13:36.433Z,995.90
2018-09-06T08:14:36.422Z,995.89
2018-09-06T08:15:36.413Z,995.90
2018-09-06T08:16:36.423Z,995.95
2018-09-06T08:17:36.394Z,995.94
2018-09-06T08:18:36.392Z,995.91
2018-09-06T08:19:36.368Z,995.91
2018-09-06T08:20:36.386Z,995.89
2018-09-06T08:21:36.367Z,995.90
2018-09-06T08:22:36.334Z,995.92
2018-09-06T08:23:36.324Z,995.95
2018-09-06T08:24:36.322Z,995.92
2018-09-06T08:25:36.300Z,995.96
2018-09-06T08:26:36.310Z,995.98
2018-09-06T08:27:36.302Z,995.99
2018-09-06T08:28:36.274Z,995.99
2018-09-06T08:29:36.255Z,995.95
2018-09-06T08:30:36.332Z,995.95
2018-09-06T08:31:36.260Z,995.97
2018-09-06T08:32:36.225Z,995.97
2018-09-06T08:33:36.736Z,995.95
2018-09-06T08:34:36.241Z,995.94
2018-09-06T08:35:36.196Z,995.94
2018-09-06T08:36:36.202Z,995.91
2018-09-06T08:37:36.205Z,995.92
2018-09-06T08:38:36.155Z,995.90
2018-09-06T08:39:36.153Z,995.88
2018-09-06T08:40:36.133Z,995.86
2018-09-06T08:41:36.123Z,995.89
2018-09-06T08:42:36.275Z,995.86
2018-09-06T08:43:36.127Z,995.84
2018-09-06T08:44:36.089Z,995.88
2018-09-06T08:45:36.080Z,995.88
2018-09-06T08:46:36.068Z,995.92
2018-09-06T08:47:36.160Z,995.90
2018-09-06T08:48:36.048Z,995.90
2018-09-06T08:49:36.033Z,995.88
2018-09-06T08:50:36.027Z,995.85
2018-09-06T08:51:36.033Z,995.88
2018-09-06T08:52:36.020Z,995.85
2018-09-06T08:53:35.989Z,995.86
2018-09-06T08:54:35.977Z,995.87
2018-09-06T08:55:36.089Z,995.91
2018-09-06T08:56:35.958Z,995.89
2018-09-06T08:57:35.967Z,995.88
2018-09-06T08:58:35.969Z,995.92
2018-09-06T08:59:35.970Z,995.87
2018-09-06T09:00:35.915Z,995.89
2018-09-06T09:01:35.901Z,995.89
2018-09-06T09:02:35.989Z,995.87
2018-09-06T09:03:35.884Z,995.88
2018-09-06T09:04:35.875Z,995.87
2018-09-06T09:05:35.868Z,995.84
2018-09-06T09:06:35.843Z,995.85
2018-09-06T09:07:35.964Z,995.85
2018-09-06T09:08:35.822Z,995.87
2018-09-06T09:09:35.812Z,995.86
2018-09-06T09:10:35.804Z,995.84
2018-09-06T09:11:35.793Z,995.87
2018-09-06T09:12:35.883Z,995.88
2018-09-06T09:13:35.833Z,995.86
2018-09-06T09:14:35.756Z,995.85
2018-09-06T09:15:35.744Z,995.86
2018-09-06T09:16:35.732Z,995.87
2018-09-06T09:17:35.803Z,995.85
2018-09-06T09:18:35.710Z,995.87
2018-09-06T09:19:35.700Z,995.84
2018-09-06T09:20:35.688Z,995.89
2018-09-06T09:21:35.750Z,995.89
2018-09-06T09:22:35.692Z,995.86
2018-09-06T09:23:35.655Z,995.81
2018-09-06T09:24:35.644Z,995.85
2018-09-06T09:25:35.689Z,995.89
2018-09-06T09:26:35.621Z,995.88
2018-09-06T09:27:38.268Z,995.86
2018-09-06T09:28:35.598Z,995.78
2018-09-06T09:29:35.589Z,995.83
2018-09-06T09:30:35.613Z,995.81
2018-09-06T09:31:35.566Z,995.82
2018-09-06T09:32:35.575Z,995.79
2018-09-06T09:33:35.547Z,995.81
2018-09-06T09:34:35.533Z,995.80
2018-09-06T09:35:35.527Z,995.77
2018-09-06T09:36:35.516Z,995.82
2018-09-06T09:37:35.520Z,995.78
2018-09-06T09:38:35.489Z,995.81
2018-09-06T09:39:35.527Z,995.78
2018-09-06T09:40:35.468Z,995.81
2018-09-06T09:41:35.460Z,995.81
2018-09-06T09:42:38.770Z,995.81
2018-09-06T09:43:35.434Z,995.82
2018-09-06T09:44:35.423Z,995.81
2018-09-06T09:45:35.647Z,995.84
2018-09-06T09:48:01.950Z,995.79
2018-09-06T09:49:02.012Z,995.83
2018-09-06T09:50:01.908Z,995.81
2018-09-06T09:51:01.895Z,995.81
2018-09-06T09:52:01.884Z,995.76
2018-09-06T09:53:01.893Z,995.79
2018-09-06T09:54:01.862Z,995.78
2018-09-06T09:55:01.853Z,995.80
2018-09-06T09:56:01.840Z,995.77
2018-09-06T09:57:01.856Z,995.78
2018-09-06T09:58:01.838Z,995.81
2018-09-06T09:59:01.808Z,995.82
2018-09-06T10:00:01.805Z,995.80
2018-09-06T10:01:01.785Z,995.79
2018-09-06T10:02:01.772Z,995.80
2018-09-06T10:03:01.781Z,995.83
2018-09-06T10:04:01.754Z,995.81
2018-09-06T10:05:01.741Z,995.77
2018-09-06T10:06:01.729Z,995.76
2018-09-06T10:07:01.718Z,995.74
2018-09-06T10:08:01.727Z,995.75
2018-09-06T10:09:01.698Z,995.76
2018-09-06T10:10:01.688Z,995.72
2018-09-06T10:11:01.680Z,995.74
2018-09-06T10:12:01.665Z,995.74
2018-09-06T10:13:01.671Z,995.74
2018-09-06T10:14:01.641Z,995.74
2018-09-06T10:15:01.630Z,995.73
2018-09-06T10:16:01.786Z,995.74
2018-09-06T10:17:01.611Z,995.77
2018-09-06T10:18:01.667Z,995.74
2018-09-06T10:19:01.586Z,995.74
2018-09-06T10:20:01.577Z,995.75
2018-09-06T10:21:01.578Z,995.74
2018-09-06T10:22:01.553Z,995.74
2018-09-06T10:23:01.566Z,995.72
2018-09-06T10:24:01.531Z,995.71
2018-09-06T10:25:01.520Z,995.68
2018-09-06T10:26:01.512Z,995.65
2018-09-06T10:27:01.497Z,995.66
2018-09-06T10:28:01.533Z,995.63
2018-09-06T10:29:01.473Z,995.63
2018-09-06T10:30:01.467Z,995.58
2018-09-06T10:31:01.453Z,995.55
2018-09-06T10:32:01.439Z,995.54
2018-09-06T10:33:01.432Z,995.51
2018-09-06T10:34:01.545Z,995.49
2018-09-06T10:35:01.406Z,995.47
2018-09-06T10:36:01.398Z,995.46
2018-09-06T10:37:01.385Z,995.48
2018-09-06T10:38:01.376Z,995.48
2018-09-06T10:39:01.383Z,995.51
2018-09-06T10:40:01.453Z,995.48
2018-09-06T10:41:01.339Z,995.53
2018-09-06T10:42:01.328Z,995.52
2018-09-06T10:43:01.320Z,995.53
2018-09-06T10:44:01.328Z,995.50
2018-09-06T10:45:01.297Z,995.51
2018-09-06T10:46:01.284Z,995.49
2018-09-06T10:47:01.274Z,995.51
2018-09-06T10:48:01.262Z,995.49
2018-09-06T10:49:01.271Z,995.46
2018-09-06T10:50:01.241Z,995.45
2018-09-06T10:51:01.229Z,995.45
2018-09-06T10:52:01.223Z,995.43
2018-09-06T10:53:01.211Z,995.41
2018-09-06T10:54:01.219Z,995.42
2018-09-06T10:55:01.184Z,995.41
2018-09-06T10:56:01.179Z,995.40
2018-09-06T10:57:01.162Z,995.37
2018-09-06T10:58:01.151Z,995.40
2018-09-06T10:59:01.161Z,995.34
2018-09-06T11:00:01.129Z,995.38
2018-09-06T11:01:01.119Z,995.34
2018-09-06T11:02:01.107Z,995.36
2018-09-06T11:03:01.098Z,995.37
2018-09-06T11:04:01.106Z,995.40
2018-09-06T11:05:01.075Z,995.45
2018-09-06T11:06:01.066Z,995.37
2018-09-06T11:07:01.051Z,995.38
2018-09-06T11:08:01.082Z,995.37
2018-09-06T11:09:01.057Z,995.36
2018-09-06T11:10:01.033Z,995.37
2018-09-06T11:11:01.006Z,995.35
2018-09-06T11:12:00.995Z,995.36
2018-09-06T11:13:00.986Z,995.34
2018-09-06T11:14:00.993Z,995.34
2018-09-06T11:15:01.002Z,995.38
2018-09-06T11:16:00.960Z,995.37
2018-09-06T11:17:00.942Z,995.37
2018-09-06T11:18:00.975Z,995.40
2018-09-06T11:19:00.939Z,995.33
2018-09-06T11:20:00.908Z,995.31
2018-09-06T11:21:00.954Z,995.36
2018-09-06T11:22:01.182Z,995.33
2018-09-06T11:23:00.907Z,995.37
2018-09-06T11:24:06.924Z,995.36
2018-09-06T11:25:01.172Z,995.37
2018-09-06T11:26:03.241Z,995.41
2018-09-06T11:27:03.526Z,995.44
2018-09-06T11:28:00.817Z,995.47
2018-09-06T11:29:00.837Z,995.42
2018-09-06T11:30:00.797Z,995.37
2018-09-06T11:31:00.784Z,995.40
2018-09-06T11:32:00.773Z,995.36
2018-09-06T11:33:00.762Z,995.35
2018-09-06T11:34:00.771Z,995.29
2018-09-06T11:35:00.739Z,995.27
2018-09-06T11:36:00.728Z,995.28
2018-09-06T11:37:00.717Z,995.27
2018-09-06T11:38:00.711Z,995.22
2018-09-06T11:39:00.717Z,995.24
2018-09-06T11:40:00.817Z,995.19
2018-09-06T11:41:00.672Z,995.21
2018-09-06T11:42:00.667Z,995.27
2018-09-06T11:43:00.650Z,995.25
2018-09-06T11:44:00.659Z,995.21
2018-09-06T11:45:00.630Z,995.20
2018-09-06T11:46:00.621Z,995.19
2018-09-06T11:47:00.708Z,995.23
2018-09-06T11:48:00.617Z,995.25
2018-09-06T11:49:00.611Z,995.25
2018-09-06T11:50:00.574Z,995.26
2018-09-06T11:51:00.561Z,995.27
2018-09-06T11:52:00.563Z,995.27
2018-09-06T11:53:00.539Z,995.25
2018-09-06T11:54:00.587Z,995.28
2018-09-06T11:55:00.539Z,995.27
2018-09-06T11:56:00.537Z,995.33
2018-09-06T11:57:00.495Z,995.24
2018-09-06T11:58:00.484Z,995.29
2018-09-06T11:59:00.490Z,995.32
2018-09-06T12:00:00.482Z,995.32
2018-09-06T12:01:00.450Z,995.31
2018-09-06T12:02:00.501Z,995.24
2018-09-06T12:03:00.428Z,995.23
2018-09-06T12:04:00.417Z,995.25
2018-09-06T12:05:00.426Z,995.23
2018-09-06T12:06:00.397Z,995.22
2018-09-06T12:07:00.387Z,995.22
2018-09-06T12:08:00.373Z,995.18
2018-09-06T12:09:00.363Z,995.16
2018-09-06T12:10:00.376Z,995.13
2018-09-06T12:11:00.341Z,995.15
2018-09-06T12:12:00.328Z,995.16
2018-09-06T12:13:00.317Z,995.14
2018-09-06T12:14:00.306Z,995.17
2018-09-06T12:15:00.351Z,995.20
2018-09-06T12:16:00.285Z,995.19
2018-09-06T12:17:00.272Z,995.21
2018-09-06T12:18:00.262Z,995.22
2018-09-06T12:19:00.251Z,995.18
2018-09-06T12:20:00.259Z,995.19
2018-09-06T12:21:00.229Z,995.21
2018-09-06T12:22:00.218Z,995.24
2018-09-06T12:23:00.207Z,995.19
2018-09-06T12:24:00.195Z,995.22
2018-09-06T12:25:00.206Z,995.19
2018-09-06T12:26:00.174Z,995.20
2018-09-06T12:27:00.167Z,995.20
2018-09-06T12:28:00.150Z,995.19
2018-09-06T12:29:00.140Z,995.21
2018-09-06T12:30:00.152Z,995.24
2018-09-06T12:31:00.116Z,995.18
2018-09-06T12:32:00.105Z,995.21
2018-09-06T12:33:00.096Z,995.18